sensor_id;sensor_type;location;lat;lon;timestamp;P1;durP1;ratioP1;P2;durP2;ratioP2
23304;SDS011;11821;51.456;8.844;2024-01-06T00:00:32;8.93;;;4.15;;
23304;SDS011;11821;51.456;8.844;2024-01-06T00:02:58;9.63;;;3.80;;
23304;SDS011;11821;51.456;8.844;2024-01-06T00:05:25;7.70;;;3.50;;
23304;SDS011;11821;51.456;8.844;2024-01-06T00:07:51;5.03;;;2.42;;
23304;SDS011;11821;51.456;8.844;2024-01-06T00:10:18;6.45;;;2.20;;
23304;SDS011;11821;51.456;8.844;2024-01-06T00:12:45;2.28;;;1.83;;
23304;SDS011;11821;51.456;8.844;2024-01-06T00:15:12;4.75;;;2.30;;
23304;SDS011;11821;51.456;8.844;2024-01-06T00:17:39;4.30;;;2.00;;
23304;SDS011;11821;51.456;8.844;2024-01-06T00:20:05;4.20;;;1.50;;
23304;SDS011;11821;51.456;8.844;2024-01-06T00:22:32;6.03;;;2.17;;
23304;SDS011;11821;51.456;8.844;2024-01-06T00:24:59;6.40;;;1.90;;
23304;SDS011;11821;51.456;8.844;2024-01-06T00:27:25;4.45;;;2.28;;
23304;SDS011;11821;51.456;8.844;2024-01-06T00:29:52;4.85;;;2.45;;
23304;SDS011;11821;51.456;8.844;2024-01-06T00:32:18;5.32;;;2.47;;
23304;SDS011;11821;51.456;8.844;2024-01-06T00:34:45;4.93;;;2.72;;
23304;SDS011;11821;51.456;8.844;2024-01-06T00:37:13;4.47;;;2.10;;
23304;SDS011;11821;51.456;8.844;2024-01-06T00:39:39;3.65;;;2.30;;
23304;SDS011;11821;51.456;8.844;2024-01-06T00:42:06;3.47;;;2.10;;
23304;SDS011;11821;51.456;8.844;2024-01-06T00:44:34;3.80;;;2.20;;
23304;SDS011;11821;51.456;8.844;2024-01-06T00:47:01;3.60;;;2.65;;
23304;SDS011;11821;51.456;8.844;2024-01-06T00:49:27;5.15;;;3.78;;
23304;SDS011;11821;51.456;8.844;2024-01-06T00:51:54;4.85;;;2.72;;
23304;SDS011;11821;51.456;8.844;2024-01-06T00:54:20;3.88;;;2.20;;
23304;SDS011;11821;51.456;8.844;2024-01-06T00:56:47;3.80;;;2.40;;
23304;SDS011;11821;51.456;8.844;2024-01-06T00:59:13;4.82;;;3.15;;
23304;SDS011;11821;51.456;8.844;2024-01-06T01:01:40;4.53;;;2.15;;
23304;SDS011;11821;51.456;8.844;2024-01-06T01:04:06;3.58;;;2.28;;
23304;SDS011;11821;51.456;8.844;2024-01-06T01:06:33;6.53;;;2.30;;
23304;SDS011;11821;51.456;8.844;2024-01-06T01:08:59;6.47;;;2.30;;
23304;SDS011;11821;51.456;8.844;2024-01-06T01:11:26;6.03;;;2.72;;
23304;SDS011;11821;51.456;8.844;2024-01-06T01:13:52;3.78;;;2.33;;
23304;SDS011;11821;51.456;8.844;2024-01-06T01:16:19;7.13;;;4.75;;
23304;SDS011;11821;51.456;8.844;2024-01-06T01:18:45;8.50;;;4.18;;
23304;SDS011;11821;51.456;8.844;2024-01-06T01:21:12;5.95;;;3.40;;
23304;SDS011;11821;51.456;8.844;2024-01-06T01:23:38;9.68;;;4.32;;
23304;SDS011;11821;51.456;8.844;2024-01-06T01:26:05;5.53;;;3.88;;
23304;SDS011;11821;51.456;8.844;2024-01-06T01:28:32;6.28;;;3.40;;
23304;SDS011;11821;51.456;8.844;2024-01-06T01:30:58;5.43;;;3.10;;
23304;SDS011;11821;51.456;8.844;2024-01-06T01:33:25;3.53;;;3.17;;
23304;SDS011;11821;51.456;8.844;2024-01-06T01:35:51;4.35;;;3.20;;
23304;SDS011;11821;51.456;8.844;2024-01-06T01:38:18;4.35;;;2.80;;
23304;SDS011;11821;51.456;8.844;2024-01-06T01:40:44;4.03;;;1.98;;
23304;SDS011;11821;51.456;8.844;2024-01-06T01:43:20;3.25;;;2.25;;
23304;SDS011;11821;51.456;8.844;2024-01-06T01:45:48;7.78;;;4.70;;
23304;SDS011;11821;51.456;8.844;2024-01-06T01:48:17;20.52;;;9.88;;
23304;SDS011;11821;51.456;8.844;2024-01-06T01:50:47;28.65;;;13.00;;
23304;SDS011;11821;51.456;8.844;2024-01-06T01:53:14;8.05;;;5.85;;
23304;SDS011;11821;51.456;8.844;2024-01-06T01:55:41;3.28;;;2.58;;
23304;SDS011;11821;51.456;8.844;2024-01-06T01:58:09;3.15;;;2.53;;
23304;SDS011;11821;51.456;8.844;2024-01-06T02:00:36;6.72;;;2.50;;
23304;SDS011;11821;51.456;8.844;2024-01-06T02:03:03;7.28;;;2.83;;
23304;SDS011;11821;51.456;8.844;2024-01-06T02:05:30;8.15;;;3.50;;
23304;SDS011;11821;51.456;8.844;2024-01-06T02:07:57;4.35;;;2.78;;
23304;SDS011;11821;51.456;8.844;2024-01-06T02:10:24;4.57;;;2.17;;
23304;SDS011;11821;51.456;8.844;2024-01-06T02:12:50;2.53;;;2.30;;
23304;SDS011;11821;51.456;8.844;2024-01-06T02:15:17;5.65;;;3.55;;
23304;SDS011;11821;51.456;8.844;2024-01-06T02:17:44;9.52;;;3.65;;
23304;SDS011;11821;51.456;8.844;2024-01-06T02:20:11;5.80;;;3.45;;
23304;SDS011;11821;51.456;8.844;2024-01-06T02:22:38;3.75;;;2.72;;
23304;SDS011;11821;51.456;8.844;2024-01-06T02:25:05;6.00;;;3.33;;
23304;SDS011;11821;51.456;8.844;2024-01-06T02:27:38;5.85;;;3.10;;
23304;SDS011;11821;51.456;8.844;2024-01-06T02:30:05;5.53;;;3.38;;
23304;SDS011;11821;51.456;8.844;2024-01-06T02:32:32;6.65;;;2.95;;
23304;SDS011;11821;51.456;8.844;2024-01-06T02:34:59;4.32;;;3.05;;
23304;SDS011;11821;51.456;8.844;2024-01-06T02:37:25;3.58;;;2.38;;
23304;SDS011;11821;51.456;8.844;2024-01-06T02:39:52;4.70;;;2.65;;
23304;SDS011;11821;51.456;8.844;2024-01-06T02:42:19;4.63;;;3.42;;
23304;SDS011;11821;51.456;8.844;2024-01-06T02:44:45;3.50;;;2.90;;
23304;SDS011;11821;51.456;8.844;2024-01-06T02:47:12;3.03;;;2.67;;
23304;SDS011;11821;51.456;8.844;2024-01-06T02:49:38;5.97;;;2.85;;
23304;SDS011;11821;51.456;8.844;2024-01-06T02:52:05;3.83;;;2.40;;
23304;SDS011;11821;51.456;8.844;2024-01-06T02:54:31;3.03;;;2.58;;
23304;SDS011;11821;51.456;8.844;2024-01-06T02:56:58;3.15;;;2.80;;
23304;SDS011;11821;51.456;8.844;2024-01-06T02:59:24;3.67;;;2.58;;
23304;SDS011;11821;51.456;8.844;2024-01-06T03:01:51;3.35;;;2.47;;
23304;SDS011;11821;51.456;8.844;2024-01-06T03:04:17;3.13;;;2.35;;
23304;SDS011;11821;51.456;8.844;2024-01-06T03:06:44;6.75;;;3.10;;
23304;SDS011;11821;51.456;8.844;2024-01-06T03:09:11;7.82;;;2.80;;
23304;SDS011;11821;51.456;8.844;2024-01-06T03:11:38;6.35;;;3.00;;
23304;SDS011;11821;51.456;8.844;2024-01-06T03:17:33;5.53;;;3.55;;
23304;SDS011;11821;51.456;8.844;2024-01-06T03:20:00;3.75;;;2.92;;
23304;SDS011;11821;51.456;8.844;2024-01-06T03:22:26;3.88;;;2.80;;
23304;SDS011;11821;51.456;8.844;2024-01-06T03:24:53;5.28;;;3.42;;
23304;SDS011;11821;51.456;8.844;2024-01-06T03:27:19;5.45;;;2.88;;
23304;SDS011;11821;51.456;8.844;2024-01-06T03:29:46;6.65;;;4.60;;
23304;SDS011;11821;51.456;8.844;2024-01-06T03:32:12;6.22;;;4.38;;
23304;SDS011;11821;51.456;8.844;2024-01-06T03:34:40;5.95;;;4.25;;
23304;SDS011;11821;51.456;8.844;2024-01-06T03:37:07;5.70;;;4.05;;
23304;SDS011;11821;51.456;8.844;2024-01-06T03:39:33;6.97;;;4.05;;
23304;SDS011;11821;51.456;8.844;2024-01-06T03:42:00;8.00;;;4.70;;
23304;SDS011;11821;51.456;8.844;2024-01-06T03:44:27;5.82;;;4.35;;
23304;SDS011;11821;51.456;8.844;2024-01-06T03:46:56;6.82;;;3.75;;
23304;SDS011;11821;51.456;8.844;2024-01-06T03:49:23;7.05;;;3.08;;
23304;SDS011;11821;51.456;8.844;2024-01-06T03:51:50;3.97;;;2.85;;
23304;SDS011;11821;51.456;8.844;2024-01-06T03:54:16;3.45;;;3.15;;
23304;SDS011;11821;51.456;8.844;2024-01-06T03:56:43;3.03;;;2.33;;
23304;SDS011;11821;51.456;8.844;2024-01-06T03:59:09;2.30;;;1.80;;
23304;SDS011;11821;51.456;8.844;2024-01-06T04:01:36;5.80;;;1.83;;
23304;SDS011;11821;51.456;8.844;2024-01-06T04:04:02;2.78;;;2.05;;
23304;SDS011;11821;51.456;8.844;2024-01-06T04:06:29;2.45;;;2.25;;
23304;SDS011;11821;51.456;8.844;2024-01-06T04:08:57;2.17;;;1.98;;
23304;SDS011;11821;51.456;8.844;2024-01-06T04:11:24;1.92;;;1.73;;
23304;SDS011;11821;51.456;8.844;2024-01-06T04:13:50;2.72;;;1.90;;
23304;SDS011;11821;51.456;8.844;2024-01-06T04:16:17;2.97;;;2.42;;
23304;SDS011;11821;51.456;8.844;2024-01-06T04:18:43;2.67;;;2.17;;
23304;SDS011;11821;51.456;8.844;2024-01-06T04:21:10;2.40;;;2.00;;
23304;SDS011;11821;51.456;8.844;2024-01-06T04:23:37;4.40;;;2.67;;
23304;SDS011;11821;51.456;8.844;2024-01-06T04:26:03;4.13;;;2.90;;
23304;SDS011;11821;51.456;8.844;2024-01-06T04:28:32;8.95;;;3.65;;
23304;SDS011;11821;51.456;8.844;2024-01-06T04:30:58;4.70;;;3.08;;
23304;SDS011;11821;51.456;8.844;2024-01-06T04:33:25;5.63;;;2.78;;
23304;SDS011;11821;51.456;8.844;2024-01-06T04:35:51;3.80;;;2.72;;
23304;SDS011;11821;51.456;8.844;2024-01-06T04:38:18;3.05;;;2.55;;
23304;SDS011;11821;51.456;8.844;2024-01-06T04:40:45;3.40;;;2.70;;
23304;SDS011;11821;51.456;8.844;2024-01-06T04:43:11;3.17;;;2.38;;
23304;SDS011;11821;51.456;8.844;2024-01-06T04:45:38;3.00;;;2.58;;
23304;SDS011;11821;51.456;8.844;2024-01-06T04:48:05;3.75;;;2.63;;
23304;SDS011;11821;51.456;8.844;2024-01-06T04:50:31;3.83;;;3.45;;
23304;SDS011;11821;51.456;8.844;2024-01-06T04:52:58;5.88;;;2.92;;
23304;SDS011;11821;51.456;8.844;2024-01-06T04:55:25;4.28;;;3.40;;
23304;SDS011;11821;51.456;8.844;2024-01-06T04:57:51;4.97;;;3.35;;
23304;SDS011;11821;51.456;8.844;2024-01-06T05:00:18;3.22;;;2.58;;
23304;SDS011;11821;51.456;8.844;2024-01-06T05:02:44;5.35;;;3.65;;
23304;SDS011;11821;51.456;8.844;2024-01-06T05:05:11;4.07;;;3.60;;
23304;SDS011;11821;51.456;8.844;2024-01-06T05:07:37;4.32;;;3.92;;
23304;SDS011;11821;51.456;8.844;2024-01-06T05:10:04;3.50;;;3.13;;
23304;SDS011;11821;51.456;8.844;2024-01-06T05:12:31;5.65;;;3.47;;
23304;SDS011;11821;51.456;8.844;2024-01-06T05:14:57;7.63;;;3.70;;
23304;SDS011;11821;51.456;8.844;2024-01-06T05:17:24;4.60;;;3.60;;
23304;SDS011;11821;51.456;8.844;2024-01-06T05:19:51;7.50;;;4.00;;
23304;SDS011;11821;51.456;8.844;2024-01-06T05:22:17;4.03;;;3.35;;
23304;SDS011;11821;51.456;8.844;2024-01-06T05:24:44;7.95;;;3.80;;
23304;SDS011;11821;51.456;8.844;2024-01-06T05:27:10;4.68;;;3.78;;
23304;SDS011;11821;51.456;8.844;2024-01-06T05:29:37;5.22;;;3.83;;
23304;SDS011;11821;51.456;8.844;2024-01-06T05:32:03;4.90;;;3.30;;
23304;SDS011;11821;51.456;8.844;2024-01-06T05:34:30;4.95;;;3.25;;
23304;SDS011;11821;51.456;8.844;2024-01-06T05:36:59;7.38;;;4.43;;
23304;SDS011;11821;51.456;8.844;2024-01-06T05:39:25;3.35;;;3.03;;
23304;SDS011;11821;51.456;8.844;2024-01-06T05:41:52;7.13;;;4.22;;
23304;SDS011;11821;51.456;8.844;2024-01-06T05:44:18;6.60;;;3.45;;
23304;SDS011;11821;51.456;8.844;2024-01-06T05:46:45;8.77;;;4.80;;
23304;SDS011;11821;51.456;8.844;2024-01-06T05:49:12;7.05;;;4.80;;
23304;SDS011;11821;51.456;8.844;2024-01-06T05:51:43;6.68;;;4.45;;
23304;SDS011;11821;51.456;8.844;2024-01-06T05:54:10;7.25;;;4.70;;
23304;SDS011;11821;51.456;8.844;2024-01-06T05:56:37;11.23;;;4.55;;
23304;SDS011;11821;51.456;8.844;2024-01-06T05:59:04;8.43;;;4.82;;
23304;SDS011;11821;51.456;8.844;2024-01-06T06:01:30;6.80;;;5.05;;
23304;SDS011;11821;51.456;8.844;2024-01-06T06:04:00;9.70;;;5.93;;
23304;SDS011;11821;51.456;8.844;2024-01-06T06:06:27;3.60;;;3.30;;
23304;SDS011;11821;51.456;8.844;2024-01-06T06:08:53;5.70;;;4.43;;
23304;SDS011;11821;51.456;8.844;2024-01-06T06:11:20;6.35;;;4.50;;
23304;SDS011;11821;51.456;8.844;2024-01-06T06:13:46;5.40;;;4.13;;
23304;SDS011;11821;51.456;8.844;2024-01-06T06:16:13;7.65;;;4.63;;
23304;SDS011;11821;51.456;8.844;2024-01-06T06:18:39;5.85;;;4.88;;
23304;SDS011;11821;51.456;8.844;2024-01-06T06:21:06;6.30;;;4.55;;
23304;SDS011;11821;51.456;8.844;2024-01-06T06:23:33;6.60;;;4.32;;
23304;SDS011;11821;51.456;8.844;2024-01-06T06:26:04;7.70;;;4.63;;
23304;SDS011;11821;51.456;8.844;2024-01-06T06:28:30;6.32;;;3.97;;
23304;SDS011;11821;51.456;8.844;2024-01-06T06:30:57;6.95;;;4.55;;
23304;SDS011;11821;51.456;8.844;2024-01-06T06:33:23;6.00;;;4.20;;
23304;SDS011;11821;51.456;8.844;2024-01-06T06:35:50;9.02;;;4.53;;
23304;SDS011;11821;51.456;8.844;2024-01-06T06:38:17;6.20;;;4.15;;
23304;SDS011;11821;51.456;8.844;2024-01-06T06:40:43;4.78;;;3.67;;
23304;SDS011;11821;51.456;8.844;2024-01-06T06:43:10;5.43;;;4.70;;
23304;SDS011;11821;51.456;8.844;2024-01-06T06:45:36;5.78;;;4.75;;
23304;SDS011;11821;51.456;8.844;2024-01-06T06:48:03;5.70;;;4.45;;
23304;SDS011;11821;51.456;8.844;2024-01-06T06:50:30;7.20;;;4.50;;
23304;SDS011;11821;51.456;8.844;2024-01-06T06:52:56;3.60;;;2.42;;
23304;SDS011;11821;51.456;8.844;2024-01-06T06:55:23;5.25;;;4.38;;
23304;SDS011;11821;51.456;8.844;2024-01-06T06:57:49;4.05;;;3.15;;
23304;SDS011;11821;51.456;8.844;2024-01-06T07:00:16;6.22;;;4.60;;
23304;SDS011;11821;51.456;8.844;2024-01-06T07:02:42;7.20;;;5.05;;
23304;SDS011;11821;51.456;8.844;2024-01-06T07:05:09;5.68;;;4.47;;
23304;SDS011;11821;51.456;8.844;2024-01-06T07:07:36;6.10;;;4.50;;
23304;SDS011;11821;51.456;8.844;2024-01-06T07:10:06;4.70;;;3.70;;
23304;SDS011;11821;51.456;8.844;2024-01-06T07:12:33;5.72;;;4.35;;
23304;SDS011;11821;51.456;8.844;2024-01-06T07:14:59;5.55;;;4.18;;
23304;SDS011;11821;51.456;8.844;2024-01-06T07:17:26;6.68;;;4.85;;
23304;SDS011;11821;51.456;8.844;2024-01-06T07:19:53;6.35;;;4.97;;
23304;SDS011;11821;51.456;8.844;2024-01-06T07:22:19;11.48;;;5.93;;
23304;SDS011;11821;51.456;8.844;2024-01-06T07:24:46;4.30;;;3.47;;
23304;SDS011;11821;51.456;8.844;2024-01-06T07:27:13;6.80;;;5.32;;
23304;SDS011;11821;51.456;8.844;2024-01-06T07:29:40;4.47;;;3.13;;
23304;SDS011;11821;51.456;8.844;2024-01-06T07:32:07;9.82;;;5.68;;
23304;SDS011;11821;51.456;8.844;2024-01-06T07:34:33;8.98;;;5.28;;
23304;SDS011;11821;51.456;8.844;2024-01-06T07:37:00;8.93;;;5.05;;
23304;SDS011;11821;51.456;8.844;2024-01-06T07:39:27;7.53;;;5.07;;
23304;SDS011;11821;51.456;8.844;2024-01-06T07:41:53;6.93;;;4.90;;
23304;SDS011;11821;51.456;8.844;2024-01-06T07:44:20;8.55;;;5.45;;
23304;SDS011;11821;51.456;8.844;2024-01-06T07:46:53;8.25;;;5.68;;
23304;SDS011;11821;51.456;8.844;2024-01-06T07:49:19;6.35;;;5.13;;
23304;SDS011;11821;51.456;8.844;2024-01-06T07:51:46;7.97;;;5.22;;
23304;SDS011;11821;51.456;8.844;2024-01-06T07:54:13;7.25;;;5.72;;
23304;SDS011;11821;51.456;8.844;2024-01-06T07:56:40;7.07;;;5.88;;
23304;SDS011;11821;51.456;8.844;2024-01-06T07:59:09;7.28;;;5.63;;
23304;SDS011;11821;51.456;8.844;2024-01-06T08:01:37;7.40;;;5.55;;
23304;SDS011;11821;51.456;8.844;2024-01-06T08:04:03;8.68;;;6.15;;
23304;SDS011;11821;51.456;8.844;2024-01-06T08:06:30;7.13;;;5.60;;
23304;SDS011;11821;51.456;8.844;2024-01-06T08:08:56;9.05;;;6.07;;
23304;SDS011;11821;51.456;8.844;2024-01-06T08:11:23;10.40;;;7.93;;
23304;SDS011;11821;51.456;8.844;2024-01-06T08:13:49;9.43;;;7.60;;
23304;SDS011;11821;51.456;8.844;2024-01-06T08:16:16;11.25;;;7.97;;
23304;SDS011;11821;51.456;8.844;2024-01-06T08:18:44;8.00;;;6.15;;
23304;SDS011;11821;51.456;8.844;2024-01-06T08:21:11;7.05;;;5.60;;
23304;SDS011;11821;51.456;8.844;2024-01-06T08:23:38;10.23;;;6.65;;
23304;SDS011;11821;51.456;8.844;2024-01-06T08:26:04;4.85;;;4.38;;
23304;SDS011;11821;51.456;8.844;2024-01-06T08:28:31;9.15;;;6.35;;
23304;SDS011;11821;51.456;8.844;2024-01-06T08:30:58;10.32;;;6.28;;
23304;SDS011;11821;51.456;8.844;2024-01-06T08:33:24;9.90;;;4.97;;
23304;SDS011;11821;51.456;8.844;2024-01-06T08:35:51;7.35;;;6.18;;
23304;SDS011;11821;51.456;8.844;2024-01-06T08:38:17;9.43;;;6.53;;
23304;SDS011;11821;51.456;8.844;2024-01-06T08:40:44;9.27;;;5.80;;
23304;SDS011;11821;51.456;8.844;2024-01-06T08:43:13;7.45;;;5.55;;
23304;SDS011;11821;51.456;8.844;2024-01-06T08:45:40;9.77;;;6.22;;
23304;SDS011;11821;51.456;8.844;2024-01-06T08:48:07;10.10;;;6.22;;
23304;SDS011;11821;51.456;8.844;2024-01-06T08:50:33;9.45;;;6.93;;
23304;SDS011;11821;51.456;8.844;2024-01-06T08:53:00;11.88;;;8.35;;
23304;SDS011;11821;51.456;8.844;2024-01-06T08:55:26;14.85;;;8.82;;
23304;SDS011;11821;51.456;8.844;2024-01-06T08:57:53;9.80;;;7.75;;
23304;SDS011;11821;51.456;8.844;2024-01-06T09:00:20;15.70;;;8.90;;
23304;SDS011;11821;51.456;8.844;2024-01-06T09:02:46;15.43;;;10.32;;
23304;SDS011;11821;51.456;8.844;2024-01-06T09:05:14;14.10;;;8.43;;
23304;SDS011;11821;51.456;8.844;2024-01-06T09:07:41;12.15;;;7.78;;
23304;SDS011;11821;51.456;8.844;2024-01-06T09:10:07;9.85;;;6.70;;
23304;SDS011;11821;51.456;8.844;2024-01-06T09:12:35;9.85;;;6.68;;
23304;SDS011;11821;51.456;8.844;2024-01-06T09:15:01;10.55;;;6.57;;
23304;SDS011;11821;51.456;8.844;2024-01-06T09:17:28;11.77;;;7.38;;
23304;SDS011;11821;51.456;8.844;2024-01-06T09:19:54;10.30;;;6.50;;
23304;SDS011;11821;51.456;8.844;2024-01-06T09:22:21;10.77;;;7.45;;
23304;SDS011;11821;51.456;8.844;2024-01-06T09:24:49;11.73;;;7.85;;
23304;SDS011;11821;51.456;8.844;2024-01-06T09:27:16;14.57;;;9.43;;
23304;SDS011;11821;51.456;8.844;2024-01-06T09:29:42;10.27;;;7.45;;
23304;SDS011;11821;51.456;8.844;2024-01-06T09:32:09;13.80;;;7.65;;
23304;SDS011;11821;51.456;8.844;2024-01-06T09:34:35;11.27;;;6.65;;
23304;SDS011;11821;51.456;8.844;2024-01-06T09:37:02;9.02;;;6.30;;
23304;SDS011;11821;51.456;8.844;2024-01-06T09:39:29;9.18;;;5.70;;
23304;SDS011;11821;51.456;8.844;2024-01-06T09:41:57;11.27;;;7.07;;
23304;SDS011;11821;51.456;8.844;2024-01-06T09:44:24;9.30;;;6.10;;
23304;SDS011;11821;51.456;8.844;2024-01-06T09:46:50;9.63;;;6.32;;
23304;SDS011;11821;51.456;8.844;2024-01-06T09:49:22;6.88;;;5.28;;
23304;SDS011;11821;51.456;8.844;2024-01-06T09:51:49;9.32;;;6.60;;
23304;SDS011;11821;51.456;8.844;2024-01-06T09:54:19;13.02;;;8.18;;
23304;SDS011;11821;51.456;8.844;2024-01-06T09:56:48;10.40;;;6.75;;
23304;SDS011;11821;51.456;8.844;2024-01-06T09:59:15;9.88;;;6.40;;
23304;SDS011;11821;51.456;8.844;2024-01-06T10:01:42;10.23;;;6.20;;
23304;SDS011;11821;51.456;8.844;2024-01-06T10:04:08;7.20;;;5.20;;
23304;SDS011;11821;51.456;8.844;2024-01-06T10:06:35;9.18;;;6.15;;
23304;SDS011;11821;51.456;8.844;2024-01-06T10:09:02;9.40;;;5.72;;
23304;SDS011;11821;51.456;8.844;2024-01-06T10:11:30;13.20;;;8.18;;
23304;SDS011;11821;51.456;8.844;2024-01-06T10:13:57;15.15;;;8.75;;
23304;SDS011;11821;51.456;8.844;2024-01-06T10:16:23;15.80;;;8.57;;
23304;SDS011;11821;51.456;8.844;2024-01-06T10:18:50;18.05;;;9.18;;
23304;SDS011;11821;51.456;8.844;2024-01-06T10:21:17;40.80;;;23.27;;
23304;SDS011;11821;51.456;8.844;2024-01-06T10:23:45;21.27;;;11.45;;
23304;SDS011;11821;51.456;8.844;2024-01-06T10:26:13;29.30;;;14.80;;
23304;SDS011;11821;51.456;8.844;2024-01-06T10:28:40;18.25;;;9.77;;
23304;SDS011;11821;51.456;8.844;2024-01-06T10:31:07;19.95;;;12.02;;
23304;SDS011;11821;51.456;8.844;2024-01-06T10:33:34;22.88;;;9.85;;
23304;SDS011;11821;51.456;8.844;2024-01-06T10:36:00;24.63;;;11.52;;
23304;SDS011;11821;51.456;8.844;2024-01-06T10:38:32;21.23;;;10.52;;
23304;SDS011;11821;51.456;8.844;2024-01-06T10:41:01;18.63;;;9.85;;
23304;SDS011;11821;51.456;8.844;2024-01-06T10:43:35;17.70;;;8.50;;
23304;SDS011;11821;51.456;8.844;2024-01-06T10:46:06;23.10;;;9.20;;
23304;SDS011;11821;51.456;8.844;2024-01-06T10:48:36;18.38;;;9.85;;
23304;SDS011;11821;51.456;8.844;2024-01-06T10:51:10;19.52;;;11.07;;
23304;SDS011;11821;51.456;8.844;2024-01-06T10:53:37;17.63;;;8.90;;
23304;SDS011;11821;51.456;8.844;2024-01-06T10:56:05;20.23;;;9.93;;
23304;SDS011;11821;51.456;8.844;2024-01-06T10:58:45;21.40;;;9.50;;
23304;SDS011;11821;51.456;8.844;2024-01-06T11:01:13;17.77;;;8.70;;
23304;SDS011;11821;51.456;8.844;2024-01-06T11:03:40;22.80;;;10.02;;
23304;SDS011;11821;51.456;8.844;2024-01-06T11:06:07;19.42;;;8.82;;
23304;SDS011;11821;51.456;8.844;2024-01-06T11:08:42;16.23;;;7.50;;
23304;SDS011;11821;51.456;8.844;2024-01-06T11:11:18;18.20;;;9.02;;
23304;SDS011;11821;51.456;8.844;2024-01-06T11:13:45;18.33;;;9.07;;
23304;SDS011;11821;51.456;8.844;2024-01-06T11:18:58;17.25;;;9.15;;
23304;SDS011;11821;51.456;8.844;2024-01-06T11:21:25;15.70;;;7.70;;
23304;SDS011;11821;51.456;8.844;2024-01-06T11:26:38;8.25;;;4.45;;
23304;SDS011;11821;51.456;8.844;2024-01-06T11:29:06;8.90;;;4.85;;
23304;SDS011;11821;51.456;8.844;2024-01-06T11:31:34;7.10;;;4.50;;
23304;SDS011;11821;51.456;8.844;2024-01-06T11:34:14;6.57;;;4.18;;
23304;SDS011;11821;51.456;8.844;2024-01-06T11:36:45;6.80;;;4.32;;
23304;SDS011;11821;51.456;8.844;2024-01-06T11:41:57;7.53;;;4.15;;
23304;SDS011;11821;51.456;8.844;2024-01-06T11:44:26;7.00;;;4.03;;
23304;SDS011;11821;51.456;8.844;2024-01-06T11:46:56;6.00;;;4.07;;
23304;SDS011;11821;51.456;8.844;2024-01-06T11:49:23;7.28;;;3.63;;
23304;SDS011;11821;51.456;8.844;2024-01-06T11:51:53;7.75;;;4.30;;
23304;SDS011;11821;51.456;8.844;2024-01-06T11:54:23;7.82;;;4.55;;
23304;SDS011;11821;51.456;8.844;2024-01-06T11:56:50;7.43;;;4.97;;
23304;SDS011;11821;51.456;8.844;2024-01-06T11:59:19;5.97;;;3.95;;
23304;SDS011;11821;51.456;8.844;2024-01-06T12:01:46;4.78;;;3.20;;
23304;SDS011;11821;51.456;8.844;2024-01-06T12:04:17;4.30;;;2.83;;
23304;SDS011;11821;51.456;8.844;2024-01-06T12:06:44;9.65;;;3.53;;
23304;SDS011;11821;51.456;8.844;2024-01-06T12:09:11;4.70;;;2.78;;
23304;SDS011;11821;51.456;8.844;2024-01-06T12:11:41;6.72;;;2.70;;
23304;SDS011;11821;51.456;8.844;2024-01-06T12:14:10;4.95;;;2.50;;
23304;SDS011;11821;51.456;8.844;2024-01-06T12:16:37;4.05;;;2.53;;
23304;SDS011;11821;51.456;8.844;2024-01-06T12:19:03;6.93;;;3.72;;
23304;SDS011;11821;51.456;8.844;2024-01-06T12:21:30;4.72;;;3.10;;
23304;SDS011;11821;51.456;8.844;2024-01-06T12:24:17;3.67;;;2.35;;
23304;SDS011;11821;51.456;8.844;2024-01-06T12:26:46;4.22;;;2.88;;
23304;SDS011;11821;51.456;8.844;2024-01-06T12:29:13;4.88;;;3.10;;
23304;SDS011;11821;51.456;8.844;2024-01-06T12:31:40;3.75;;;2.97;;
23304;SDS011;11821;51.456;8.844;2024-01-06T12:34:07;4.32;;;2.60;;
23304;SDS011;11821;51.456;8.844;2024-01-06T12:36:34;4.55;;;2.58;;
23304;SDS011;11821;51.456;8.844;2024-01-06T12:39:02;3.60;;;2.70;;
23304;SDS011;11821;51.456;8.844;2024-01-06T12:41:29;5.38;;;2.78;;
23304;SDS011;11821;51.456;8.844;2024-01-06T12:43:59;6.07;;;2.85;;
23304;SDS011;11821;51.456;8.844;2024-01-06T12:46:26;4.43;;;2.80;;
23304;SDS011;11821;51.456;8.844;2024-01-06T12:48:53;5.75;;;3.53;;
23304;SDS011;11821;51.456;8.844;2024-01-06T12:51:19;4.85;;;3.33;;
23304;SDS011;11821;51.456;8.844;2024-01-06T12:53:46;9.95;;;6.05;;
23304;SDS011;11821;51.456;8.844;2024-01-06T12:56:12;6.97;;;3.50;;
23304;SDS011;11821;51.456;8.844;2024-01-06T12:58:40;4.30;;;3.00;;
23304;SDS011;11821;51.456;8.844;2024-01-06T13:01:07;5.03;;;3.15;;
23304;SDS011;11821;51.456;8.844;2024-01-06T13:03:33;4.80;;;3.25;;
23304;SDS011;11821;51.456;8.844;2024-01-06T13:06:00;6.25;;;3.35;;
23304;SDS011;11821;51.456;8.844;2024-01-06T13:08:27;5.88;;;4.68;;
23304;SDS011;11821;51.456;8.844;2024-01-06T13:10:54;4.68;;;2.95;;
23304;SDS011;11821;51.456;8.844;2024-01-06T13:13:21;4.97;;;2.78;;
23304;SDS011;11821;51.456;8.844;2024-01-06T13:15:48;7.35;;;3.40;;
23304;SDS011;11821;51.456;8.844;2024-01-06T13:18:14;5.30;;;3.45;;
23304;SDS011;11821;51.456;8.844;2024-01-06T13:20:44;8.98;;;4.85;;
23304;SDS011;11821;51.456;8.844;2024-01-06T13:23:14;3.95;;;2.80;;
23304;SDS011;11821;51.456;8.844;2024-01-06T13:25:41;5.28;;;3.22;;
23304;SDS011;11821;51.456;8.844;2024-01-06T13:28:08;4.53;;;2.88;;
23304;SDS011;11821;51.456;8.844;2024-01-06T13:30:34;7.88;;;4.32;;
23304;SDS011;11821;51.456;8.844;2024-01-06T13:33:02;5.57;;;4.57;;
23304;SDS011;11821;51.456;8.844;2024-01-06T13:35:29;4.45;;;3.00;;
23304;SDS011;11821;51.456;8.844;2024-01-06T13:37:56;5.22;;;3.80;;
23304;SDS011;11821;51.456;8.844;2024-01-06T13:40:23;6.40;;;3.65;;
23304;SDS011;11821;51.456;8.844;2024-01-06T13:42:50;5.22;;;3.80;;
23304;SDS011;11821;51.456;8.844;2024-01-06T13:45:18;6.18;;;4.07;;
23304;SDS011;11821;51.456;8.844;2024-01-06T13:47:44;9.35;;;6.68;;
23304;SDS011;11821;51.456;8.844;2024-01-06T13:50:12;5.63;;;4.22;;
23304;SDS011;11821;51.456;8.844;2024-01-06T13:52:39;5.00;;;3.80;;
23304;SDS011;11821;51.456;8.844;2024-01-06T13:55:05;5.65;;;3.03;;
23304;SDS011;11821;51.456;8.844;2024-01-06T13:57:33;6.10;;;3.75;;
23304;SDS011;11821;51.456;8.844;2024-01-06T14:00:00;6.93;;;4.28;;
23304;SDS011;11821;51.456;8.844;2024-01-06T14:02:37;7.22;;;3.80;;
23304;SDS011;11821;51.456;8.844;2024-01-06T14:05:04;7.07;;;4.03;;
23304;SDS011;11821;51.456;8.844;2024-01-06T14:07:34;5.28;;;3.53;;
23304;SDS011;11821;51.456;8.844;2024-01-06T14:10:01;9.00;;;4.53;;
23304;SDS011;11821;51.456;8.844;2024-01-06T14:12:29;5.72;;;3.97;;
23304;SDS011;11821;51.456;8.844;2024-01-06T14:14:56;9.85;;;4.65;;
23304;SDS011;11821;51.456;8.844;2024-01-06T14:17:24;8.20;;;4.65;;
23304;SDS011;11821;51.456;8.844;2024-01-06T14:19:50;6.70;;;4.68;;
23304;SDS011;11821;51.456;8.844;2024-01-06T14:22:18;24.83;;;10.70;;
23304;SDS011;11821;51.456;8.844;2024-01-06T14:24:44;12.27;;;6.65;;
23304;SDS011;11821;51.456;8.844;2024-01-06T14:27:11;32.28;;;14.98;;
23304;SDS011;11821;51.456;8.844;2024-01-06T14:29:38;13.43;;;6.10;;
23304;SDS011;11821;51.456;8.844;2024-01-06T14:32:05;57.38;;;24.45;;
23304;SDS011;11821;51.456;8.844;2024-01-06T14:34:31;16.98;;;9.75;;
23304;SDS011;11821;51.456;8.844;2024-01-06T14:36:58;9.93;;;6.15;;
23304;SDS011;11821;51.456;8.844;2024-01-06T14:39:24;11.55;;;7.20;;
23304;SDS011;11821;51.456;8.844;2024-01-06T14:41:51;12.57;;;6.45;;
23304;SDS011;11821;51.456;8.844;2024-01-06T14:44:18;10.88;;;6.88;;
23304;SDS011;11821;51.456;8.844;2024-01-06T14:46:48;10.02;;;5.80;;
23304;SDS011;11821;51.456;8.844;2024-01-06T14:49:16;8.80;;;6.10;;
23304;SDS011;11821;51.456;8.844;2024-01-06T14:51:44;11.38;;;5.95;;
23304;SDS011;11821;51.456;8.844;2024-01-06T14:54:11;8.05;;;5.65;;
23304;SDS011;11821;51.456;8.844;2024-01-06T14:56:37;9.05;;;5.55;;